Time;durP1;ratioP1;P1;durP2;ratioP2;P2;SDS_P1;SDS_P2;PMS_P1;PMS_P2;Temp;Humidity;BMP_temperature;BMP_pressure;BME280_temperature;BME280_humidity;BME280_pressure;Samples;Min_cycle;Max_cycle;Signal;HPM_P1;HPM_P2
2022/04/07 00:00:00;;;;;;;0.10;0.10;;;9.50;99.90;12.80;88045.00;;;;4979244;28;20200;-71
2022/04/07 00:02:31;;;;;;;0.10;0.10;;;9.60;99.90;12.80;88045.00;;;;4992619;28;20224;-71
2022/04/07 00:04:59;;;;;;;0.10;0.10;;;9.60;99.90;12.80;88045.00;;;;4992859;28;20670;-70
2022/04/07 00:07:27;;;;;;;0.10;0.10;;;9.60;99.90;12.80;88045.00;;;;4992402;28;20196;-71
2022/04/07 00:09:55;;;;;;;0.10;0.10;;;9.60;99.90;12.80;88045.00;;;;4992266;28;20200;-70
2022/04/07 00:12:24;;;;;;;0.10;0.10;;;9.60;99.90;12.80;88045.00;;;;4992688;28;20288;-69
2022/04/07 00:14:52;;;;;;;0.10;0.10;;;9.60;99.90;12.80;88045.00;;;;4993075;28;20193;-70
2022/04/07 00:17:20;;;;;;;0.10;0.10;;;9.60;99.90;12.80;88045.00;;;;4992203;28;20724;-69
2022/04/07 00:19:48;;;;;;;0.10;0.10;;;9.60;99.90;12.80;88045.00;;;;4993270;28;20203;-69
2022/04/07 00:22:16;;;;;;;0.10;0.10;;;9.60;99.90;12.80;88045.00;;;;4993315;28;20283;-69
2022/04/07 00:24:44;;;;;;;0.10;0.10;;;9.70;99.90;12.80;88045.00;;;;4977347;28;20201;-69
2022/04/07 00:27:12;;;;;;;0.10;0.10;;;9.70;99.90;12.80;88045.00;;;;4972689;28;20212;-69
2022/04/07 00:29:41;;;;;;;0.10;0.10;;;9.70;1.00;12.80;88045.00;;;;4973137;28;20679;-69
2022/04/07 00:32:09;;;;;;;0.10;0.10;;;9.70;1.00;12.80;88045.00;;;;4973497;28;20212;-69
2022/04/07 00:34:38;;;;;;;0.10;0.10;;;9.70;1.00;12.80;88045.00;;;;4973271;28;20267;-69
2022/04/07 00:37:06;;;;;;;0.10;0.10;;;9.60;1.00;12.80;88045.00;;;;4972866;28;20273;-70
2022/04/07 00:39:34;;;;;;;0.10;0.10;;;9.60;1.00;12.80;88045.00;;;;4986016;28;20211;-69
2022/04/07 00:42:03;;;;;;;0.05;0.05;;;9.60;1.00;12.80;88045.00;;;;4995915;28;20283;-69
2022/04/07 00:44:31;;;;;;;0.10;0.10;;;9.60;1.00;12.80;88045.00;;;;4984859;28;20509;-69
2022/04/07 00:47:00;;;;;;;0.10;0.10;;;9.50;1.00;12.80;88045.00;;;;4973224;28;20643;-69
2022/04/07 00:49:28;;;;;;;0.10;0.10;;;9.60;1.00;12.80;88045.00;;;;4973239;28;20199;-69
2022/04/07 00:51:56;;;;;;;0.10;0.10;;;9.60;1.00;12.80;88045.00;;;;4972910;28;20208;-69
2022/04/07 00:54:24;;;;;;;0.10;0.10;;;9.60;1.00;12.80;88045.00;;;;4973108;28;20247;-69
2022/04/07 00:56:55;;;;;;;0.00;0.00;;;9.60;1.00;12.80;88045.00;;;;4973007;28;20264;-69
2022/04/07 00:59:24;;;;;;;0.10;0.10;;;9.50;1.00;12.80;88045.00;;;;4972318;28;20192;-70
2022/04/07 01:01:52;;;;;;;0.10;0.10;;;9.50;1.00;12.80;88045.00;;;;4971634;28;20228;-69
2022/04/07 01:04:23;;;;;;;0.00;0.00;;;9.40;14.20;12.80;88045.00;;;;4979723;28;20204;-69
2022/04/07 01:06:52;;;;;;;0.10;0.10;;;9.40;71.10;12.80;88045.00;;;;4972909;28;20212;-70
2022/04/07 01:09:21;;;;;;;0.10;0.10;;;9.30;99.90;12.80;88045.00;;;;4979184;28;20200;-70
2022/04/07 01:11:52;;;;;;;0.10;0.10;;;9.30;99.90;12.80;88045.00;;;;4973592;28;20182;-69
2022/04/07 01:14:20;;;;;;;0.10;0.10;;;9.30;99.90;12.80;88045.00;;;;4988672;28;20662;-69
2022/04/07 01:16:48;;;;;;;0.10;0.10;;;9.30;99.90;12.80;88045.00;;;;4992309;28;20248;-70
2022/04/07 01:19:16;;;;;;;0.10;0.10;;;9.30;99.90;12.80;88045.00;;;;4972391;28;20220;-70
2022/04/07 01:21:46;;;;;;;0.10;0.10;;;9.30;99.90;12.80;88045.00;;;;4984957;28;20232;-71
2022/04/07 01:24:14;;;;;;;0.10;0.10;;;9.30;99.90;12.80;88045.00;;;;4972445;28;20228;-71
2022/04/07 01:26:46;;;;;;;0.10;0.10;;;9.30;99.90;12.80;88045.00;;;;4972361;28;20238;-71
2022/04/07 01:29:19;;;;;;;0.10;0.10;;;9.30;99.90;12.80;88045.00;;;;4975434;28;20248;-71
2022/04/07 01:31:47;;;;;;;0.10;0.10;;;9.30;99.90;12.80;88045.00;;;;4976255;28;20202;-71
2022/04/07 01:34:18;;;;;;;0.10;0.10;;;9.30;99.90;12.80;88045.00;;;;4974313;28;20232;-69
2022/04/07 01:36:52;;;;;;;0.10;0.10;;;9.30;99.90;12.80;88045.00;;;;4976083;28;20192;-69
2022/04/07 01:39:26;;;;;;;0.10;0.10;;;9.30;99.90;12.80;88045.00;;;;4976300;28;20177;-69
2022/04/07 01:41:56;;;;;;;0.10;0.10;;;9.30;99.90;12.80;88045.00;;;;4976240;28;20629;-69
2022/04/07 01:44:26;;;;;;;0.10;0.10;;;9.30;99.90;12.80;88045.00;;;;4975704;28;20193;-69
2022/04/07 01:46:56;;;;;;;0.10;0.10;;;9.20;1.00;12.80;88045.00;;;;4975716;28;20659;-69
2022/04/07 01:49:25;;;;;;;0.10;0.10;;;9.10;1.00;12.80;88045.00;;;;4975753;28;20197;-69
2022/04/07 01:51:53;;;;;;;0.00;0.00;;;9.10;1.00;12.80;88045.00;;;;4974499;28;20247;-70
2022/04/07 01:54:21;;;;;;;0.10;0.10;;;9.10;1.00;12.80;88045.00;;;;4976027;28;20251;-70
2022/04/07 01:56:51;;;;;;;0.10;0.10;;;9.10;1.00;12.80;88045.00;;;;4975859;28;20189;-71
2022/04/07 01:59:21;;;;;;;0.10;0.10;;;9.10;1.00;12.80;88045.00;;;;4975579;28;20200;-71
2022/04/07 02:01:49;;;;;;;0.10;0.10;;;9.10;1.00;12.80;88045.00;;;;4974966;28;20643;-71
2022/04/07 02:04:17;;;;;;;0.10;0.10;;;9.10;1.00;12.80;88045.00;;;;4975948;28;20719;-71
2022/04/07 02:06:46;;;;;;;0.10;0.10;;;9.10;1.00;12.80;88045.00;;;;4975596;28;20204;-71
2022/04/07 02:09:14;;;;;;;0.10;0.10;;;9.10;1.00;12.80;88045.00;;;;4975373;28;20333;-70
2022/04/07 02:11:44;;;;;;;0.10;0.10;;;9.10;1.00;12.80;88045.00;;;;4975532;28;20196;-70
2022/04/07 02:14:12;;;;;;;0.10;0.10;;;9.10;1.00;12.80;88045.00;;;;4975173;28;20216;-69
2022/04/07 02:16:42;;;;;;;0.10;0.10;;;9.20;1.00;12.80;88045.00;;;;4981320;28;20279;-69
2022/04/07 02:19:10;;;;;;;0.10;0.10;;;9.20;1.00;12.80;88045.00;;;;4991568;28;20677;-69
2022/04/07 02:21:38;;;;;;;0.10;0.10;;;9.20;1.00;12.80;88045.00;;;;4975244;28;20630;-69
2022/04/07 02:24:09;;;;;;;0.10;0.10;;;9.30;1.00;12.80;88045.00;;;;4974860;28;20225;-69
2022/04/07 02:26:37;;;;;;;0.10;0.10;;;9.30;1.00;12.80;88045.00;;;;4974848;28;20263;-69
2022/04/07 02:29:05;;;;;;;0.00;0.00;;;9.30;1.00;12.80;88045.00;;;;4975322;28;20197;-69
2022/04/07 02:31:33;;;;;;;0.10;0.10;;;9.30;1.00;12.80;88045.00;;;;4974890;28;20209;-69
2022/04/07 02:34:02;;;;;;;0.10;0.10;;;9.30;1.00;12.80;88045.00;;;;4975236;28;20224;-70
2022/04/07 02:36:30;;;;;;;0.10;0.10;;;9.30;1.00;12.80;88045.00;;;;4974507;28;20659;-70
2022/04/07 02:38:59;;;;;;;0.10;0.10;;;9.30;1.00;12.80;88045.00;;;;4989668;28;20208;-69
2022/04/07 02:41:32;;;;;;;0.10;0.10;;;9.40;1.00;12.80;88045.00;;;;4993667;28;20725;-68
2022/04/07 02:44:02;;;;;;;0.10;0.10;;;9.40;1.00;12.80;88045.00;;;;4994577;28;20212;-67
2022/04/07 02:46:30;;;;;;;0.10;0.10;;;9.40;1.00;12.80;88045.00;;;;4993989;28;20701;-68
2022/04/07 02:48:58;;;;;;;0.10;0.10;;;9.40;1.00;12.80;88045.00;;;;4994516;28;20188;-70
2022/04/07 02:51:28;;;;;;;0.10;0.10;;;9.40;1.00;12.80;88045.00;;;;4993770;28;20192;-68
2022/04/07 02:53:58;;;;;;;0.10;0.10;;;9.50;1.00;12.80;88045.00;;;;4994124;28;20296;-68
2022/04/07 02:56:26;;;;;;;0.10;0.10;;;9.50;1.00;12.80;88045.00;;;;4992825;28;20200;-68
2022/04/07 02:58:54;;;;;;;0.10;0.10;;;9.50;1.00;12.80;88045.00;;;;4994094;28;20220;-68
2022/04/07 03:01:29;;;;;;;0.10;0.10;;;9.50;1.00;12.80;88045.00;;;;4992763;28;20681;-68
2022/04/07 03:03:57;;;;;;;0.10;0.10;;;9.50;1.00;12.80;88045.00;;;;4979049;28;20225;-70
2022/04/07 03:06:25;;;;;;;0.10;0.10;;;9.50;1.00;12.80;88045.00;;;;4974450;28;20196;-69
2022/04/07 03:08:55;;;;;;;0.10;0.10;;;9.50;1.00;12.80;88045.00;;;;4981418;28;20270;-68
2022/04/07 03:11:23;;;;;;;0.10;0.10;;;9.40;1.00;12.80;88045.00;;;;4993398;28;20247;-69
2022/04/07 03:13:51;;;;;;;0.10;0.10;;;9.40;1.00;12.80;88045.00;;;;4993693;28;20247;-70
2022/04/07 03:16:19;;;;;;;0.10;0.10;;;9.40;1.00;12.80;88045.00;;;;4986462;28;20243;-68
2022/04/07 03:18:47;;;;;;;0.10;0.10;;;9.40;1.00;12.80;88045.00;;;;4989006;28;20207;-68
2022/04/07 03:21:15;;;;;;;0.10;0.10;;;9.40;1.00;12.80;88045.00;;;;4974256;28;20200;-68
2022/04/07 03:23:43;;;;;;;0.10;0.10;;;9.40;1.00;12.80;88045.00;;;;4983423;28;20236;-68
2022/04/07 03:26:12;;;;;;;0.10;0.10;;;9.40;1.00;12.80;88045.00;;;;4993001;28;20195;-69
2022/04/07 03:28:40;;;;;;;0.10;0.10;;;9.40;1.00;12.80;88045.00;;;;4985868;28;20562;-68
2022/04/07 03:31:08;;;;;;;0.10;0.10;;;9.40;1.00;12.80;88045.00;;;;4974161;28;20249;-69
2022/04/07 03:33:36;;;;;;;0.10;0.10;;;9.40;1.00;12.80;88045.00;;;;4973587;28;20574;-69
2022/04/07 03:36:05;;;;;;;0.10;0.10;;;9.30;1.00;12.80;88045.00;;;;4973806;28;20681;-68
2022/04/07 03:38:35;;;;;;;0.10;0.10;;;9.40;1.00;12.80;88045.00;;;;4981429;28;20204;-69
2022/04/07 03:41:05;;;;;;;0.10;0.10;;;9.30;1.00;12.80;88045.00;;;;4992983;28;20215;-68
2022/04/07 03:43:35;;;;;;;0.10;0.10;;;9.30;1.00;12.80;88045.00;;;;4987419;28;20236;-68
2022/04/07 03:46:03;;;;;;;0.10;0.10;;;9.30;1.00;12.80;88045.00;;;;4993149;28;20204;-68
2022/04/07 03:48:31;;;;;;;0.10;0.10;;;9.30;1.00;12.80;88045.00;;;;4986293;28;20200;-70
2022/04/07 03:50:59;;;;;;;0.05;0.05;;;9.40;1.00;12.80;88045.00;;;;4987182;28;20209;-69
2022/04/07 03:53:27;;;;;;;0.10;0.10;;;9.30;1.00;12.80;88045.00;;;;5000115;28;20227;-69
2022/04/07 03:55:55;;;;;;;0.10;0.10;;;9.30;1.00;12.80;88045.00;;;;5001324;28;20196;-71
2022/04/07 03:58:25;;;;;;;0.10;0.10;;;9.30;1.00;12.80;88045.00;;;;4984080;28;20193;-69
2022/04/07 04:00:54;;;;;;;0.10;0.10;;;9.30;1.00;12.80;88045.00;;;;4978398;28;20196;-69
2022/04/07 04:03:22;;;;;;;0.10;0.10;;;9.30;1.00;12.80;88045.00;;;;4977162;28;20720;-70
2022/04/07 04:05:50;;;;;;;0.10;0.10;;;9.30;1.00;12.80;88045.00;;;;4978043;28;20255;-69
2022/04/07 04:08:18;;;;;;;0.10;0.10;;;9.40;1.00;12.80;88045.00;;;;4974783;28;20263;-69
2022/04/07 04:10:46;;;;;;;0.10;0.10;;;9.40;1.00;12.80;88045.00;;;;4973575;28;20213;-70
2022/04/07 04:13:14;;;;;;;0.10;0.10;;;9.40;1.00;12.80;88045.00;;;;4978949;28;20262;-69
2022/04/07 04:15:42;;;;;;;0.08;0.08;;;9.40;1.00;12.80;88045.00;;;;4978985;28;20200;-69
2022/04/07 04:18:12;;;;;;;0.10;0.10;;;9.40;1.00;12.80;88045.00;;;;4984842;28;20732;-69
2022/04/07 04:20:40;;;;;;;0.05;0.05;;;9.50;1.00;12.80;88045.00;;;;4992461;28;20205;-68
2022/04/07 04:23:08;;;;;;;0.10;0.10;;;9.50;99.90;12.80;88045.00;;;;4992865;28;20212;-68
2022/04/07 04:25:36;;;;;;;0.10;0.10;;;9.50;99.90;12.80;88045.00;;;;4985118;28;20563;-68
2022/04/07 04:28:04;;;;;;;0.00;0.00;;;9.60;99.90;12.80;88045.00;;;;4981946;28;20205;-68
2022/04/07 04:30:32;;;;;;;0.10;0.10;;;9.60;99.90;12.80;88045.00;;;;4980861;28;20244;-68
2022/04/07 04:33:00;;;;;;;0.10;0.10;;;9.50;99.90;12.80;88045.00;;;;4987153;28;20224;-68
2022/04/07 04:35:30;;;;;;;0.10;0.10;;;9.60;99.90;12.80;88045.00;;;;4990252;28;20243;-68
2022/04/07 04:37:58;;;;;;;0.10;0.10;;;9.50;99.90;12.80;88045.00;;;;4978239;28;20566;-68
2022/04/07 04:40:26;;;;;;;0.10;0.10;;;9.50;99.90;12.80;88045.00;;;;4971383;28;20201;-68
2022/04/07 04:42:54;;;;;;;0.10;0.10;;;9.50;99.90;12.80;88045.00;;;;4988212;28;20296;-68
2022/04/07 04:45:22;;;;;;;0.10;0.10;;;9.50;99.90;12.80;88045.00;;;;4974165;28;20189;-68
2022/04/07 04:47:52;;;;;;;0.10;0.10;;;9.50;99.90;12.80;88045.00;;;;4986950;28;20208;-68
2022/04/07 04:50:20;;;;;;;0.10;0.10;;;9.40;99.90;12.80;88045.00;;;;4974693;28;20212;-67
2022/04/07 04:52:50;;;;;;;0.10;0.10;;;9.40;99.90;12.80;88045.00;;;;4974980;28;20221;-67
2022/04/07 04:55:19;;;;;;;0.10;0.10;;;9.40;99.90;12.80;88045.00;;;;4983044;28;20263;-69
2022/04/07 04:57:47;;;;;;;0.10;0.10;;;9.40;99.90;12.80;88045.00;;;;4992357;28;20268;-68
2022/04/07 05:00:15;;;;;;;0.10;0.10;;;9.40;99.90;12.80;88045.00;;;;4987324;28;20200;-68
2022/04/07 05:02:43;;;;;;;0.10;0.10;;;9.40;99.90;12.80;88045.00;;;;4974497;28;20785;-68
2022/04/07 05:05:12;;;;;;;0.10;0.10;;;9.40;99.90;12.80;88045.00;;;;4977540;28;20288;-69
2022/04/07 05:07:40;;;;;;;0.10;0.10;;;9.40;99.90;12.80;88045.00;;;;4977192;28;20600;-69
2022/04/07 05:10:10;;;;;;;0.10;0.10;;;9.30;99.90;12.80;88045.00;;;;4977170;28;20201;-69
2022/04/07 05:12:38;;;;;;;0.10;0.10;;;9.30;99.90;12.80;88045.00;;;;4977389;28;20220;-69
2022/04/07 05:15:07;;;;;;;0.10;0.10;;;9.30;99.90;12.80;88045.00;;;;4976907;28;20205;-70
2022/04/07 05:17:35;;;;;;;0.00;0.00;;;9.20;99.90;12.80;88045.00;;;;4983602;28;20207;-69
2022/04/07 05:20:05;;;;;;;0.10;0.10;;;9.20;1.00;12.80;88045.00;;;;4988267;28;20220;-69
2022/04/07 05:22:33;;;;;;;0.00;0.00;;;9.10;1.00;12.80;88045.00;;;;4976535;28;20229;-68
2022/04/07 05:25:01;;;;;;;0.10;0.10;;;9.10;1.00;12.80;88045.00;;;;4984910;28;20224;-68
2022/04/07 05:27:32;;;;;;;0.10;0.10;;;9.00;1.00;12.80;88045.00;;;;4995804;28;20204;-69
2022/04/07 05:30:00;;;;;;;0.10;0.10;;;9.00;1.00;12.80;88045.00;;;;4996908;28;20192;-71
2022/04/07 05:32:28;;;;;;;0.10;0.10;;;9.00;1.00;12.80;88045.00;;;;4996482;28;20219;-69
2022/04/07 05:34:57;;;;;;;0.10;0.10;;;9.00;1.00;12.80;88045.00;;;;4996562;28;20345;-68
2022/04/07 05:37:25;;;;;;;0.10;0.10;;;9.00;1.00;12.80;88045.00;;;;4976587;28;20204;-69
2022/04/07 05:39:53;;;;;;;0.10;0.10;;;9.00;1.00;12.80;88045.00;;;;4977609;28;20197;-69
2022/04/07 05:42:21;;;;;;;0.10;0.10;;;9.00;1.00;12.80;88045.00;;;;4977118;28;20216;-70
2022/04/07 05:44:50;;;;;;;0.10;0.10;;;9.00;1.00;12.80;88045.00;;;;4976273;28;20220;-70
2022/04/07 05:47:18;;;;;;;0.10;0.10;;;9.00;1.00;12.80;88045.00;;;;4975650;28;20201;-70
2022/04/07 05:49:46;;;;;;;0.10;0.10;;;9.00;1.00;12.80;88045.00;;;;4976909;28;20244;-69
2022/04/07 05:52:14;;;;;;;0.10;0.10;;;9.00;1.00;12.80;88045.00;;;;4976674;28;20550;-69
2022/04/07 05:54:42;;;;;;;0.10;0.10;;;9.00;1.00;12.80;88045.00;;;;4976136;28;20197;-69
2022/04/07 05:57:10;;;;;;;0.10;0.10;;;9.00;1.00;12.80;88045.00;;;;4974942;28;20612;-69
2022/04/07 05:59:38;;;;;;;0.10;0.10;;;9.00;1.00;12.80;88045.00;;;;4975710;28;20237;-69
2022/04/07 06:02:08;;;;;;;0.10;0.10;;;9.00;1.00;12.80;88045.00;;;;4975778;28;20190;-70
2022/04/07 06:04:39;;;;;;;0.10;0.10;;;9.00;1.00;12.80;88045.00;;;;4975675;28;20228;-70
2022/04/07 06:07:07;;;;;;;0.10;0.10;;;9.00;1.00;12.80;88045.00;;;;4975917;28;20232;-69
2022/04/07 06:09:35;;;;;;;0.10;0.10;;;9.10;1.00;12.80;88045.00;;;;4975890;28;20200;-69
2022/04/07 06:12:04;;;;;;;0.10;0.10;;;9.10;1.00;12.80;88045.00;;;;4975795;28;20205;-69
2022/04/07 06:14:32;;;;;;;0.10;0.10;;;9.10;1.00;12.80;88045.00;;;;4974659;28;20193;-69
2022/04/07 06:17:02;;;;;;;0.10;0.10;;;9.20;1.00;12.80;88045.00;;;;4975417;28;20588;-70
2022/04/07 06:19:31;;;;;;;0.10;0.10;;;9.20;1.00;12.80;88045.00;;;;4976023;28;20280;-69
2022/04/07 06:21:59;;;;;;;0.10;0.10;;;9.30;1.00;12.80;88045.00;;;;4975784;28;20197;-69
2022/04/07 06:24:27;;;;;;;0.10;0.10;;;9.30;1.00;12.80;88045.00;;;;4975487;28;20213;-68
2022/04/07 06:26:55;;;;;;;0.10;0.10;;;9.30;1.00;12.80;88045.00;;;;4975468;28;20706;-69
2022/04/07 06:29:23;;;;;;;0.10;0.10;;;9.30;1.00;12.80;88045.00;;;;4975505;28;20208;-69
2022/04/07 06:31:52;;;;;;;0.10;0.10;;;9.40;1.00;12.80;88045.00;;;;4975635;28;20713;-69
2022/04/07 06:34:21;;;;;;;0.10;0.10;;;9.40;1.00;12.80;88045.00;;;;4975766;28;20197;-69
2022/04/07 06:36:51;;;;;;;0.10;0.10;;;9.40;1.00;12.80;88045.00;;;;4975775;28;20655;-69
2022/04/07 06:39:19;;;;;;;0.10;0.10;;;9.40;1.00;12.80;88045.00;;;;4978061;28;20240;-70
2022/04/07 06:41:47;;;;;;;0.10;0.10;;;9.50;1.00;12.80;88045.00;;;;4978250;28;20226;-70
2022/04/07 06:44:15;;;;;;;0.10;0.10;;;9.50;1.00;12.80;88045.00;;;;4977835;28;20279;-69
2022/04/07 06:46:43;;;;;;;0.10;0.10;;;9.40;1.00;12.80;88045.00;;;;4978107;28;20730;-69
2022/04/07 06:49:11;;;;;;;0.10;0.10;;;9.40;1.00;12.80;88045.00;;;;4977555;28;20190;-69
2022/04/07 06:51:39;;;;;;;0.10;0.10;;;9.30;1.00;12.80;88045.00;;;;4975475;28;20193;-69
2022/04/07 06:54:09;;;;;;;0.10;0.10;;;9.30;1.00;12.80;88045.00;;;;4975148;28;20209;-69
2022/04/07 06:56:37;;;;;;;0.10;0.10;;;9.30;1.00;12.80;88045.00;;;;4974728;28;20202;-69
2022/04/07 06:59:05;;;;;;;0.10;0.10;;;9.30;1.00;12.80;88045.00;;;;4974901;28;20220;-69
2022/04/07 07:01:34;;;;;;;0.10;0.10;;;9.30;1.00;12.80;88045.00;;;;4974878;28;20194;-70
2022/04/07 07:04:05;;;;;;;0.10;0.10;;;9.30;1.00;12.80;88045.00;;;;4975326;28;20233;-69
2022/04/07 07:06:33;;;;;;;0.10;0.10;;;9.40;1.00;12.80;88045.00;;;;4974737;28;20224;-69
2022/04/07 07:09:01;;;;;;;0.10;0.10;;;9.40;1.00;12.80;88045.00;;;;4975199;28;20197;-69
2022/04/07 07:11:30;;;;;;;0.10;0.10;;;9.40;1.00;12.80;88045.00;;;;4975024;28;20193;-68
2022/04/07 07:13:58;;;;;;;0.10;0.10;;;9.50;1.00;12.80;88045.00;;;;4974898;28;20227;-69
2022/04/07 07:16:27;;;;;;;0.10;0.10;;;9.60;1.00;12.80;88045.00;;;;4974356;28;20205;-69
2022/04/07 07:18:55;;;;;;;0.10;0.10;;;9.60;1.00;12.80;88045.00;;;;4974493;28;20197;-69
2022/04/07 07:21:23;;;;;;;0.05;0.05;;;9.70;99.90;12.80;88045.00;;;;4974408;28;20557;-69
2022/04/07 07:23:51;;;;;;;0.10;0.10;;;9.80;99.90;12.80;88045.00;;;;4974307;28;20213;-69
2022/04/07 07:26:19;;;;;;;0.10;0.10;;;9.90;99.90;12.80;88045.00;;;;4973870;28;20245;-69
2022/04/07 07:28:48;;;;;;;0.10;0.10;;;10.00;99.90;12.80;88045.00;;;;4974653;28;20667;-69
2022/04/07 07:31:16;;;;;;;0.10;0.10;;;10.00;99.90;12.80;88045.00;;;;4974056;28;20200;-69
2022/04/07 07:33:45;;;;;;;0.10;0.10;;;10.10;99.90;12.80;88045.00;;;;4973136;28;20232;-69
2022/04/07 07:36:13;;;;;;;0.10;0.10;;;10.10;99.90;12.80;88045.00;;;;4974144;28;20205;-69
2022/04/07 07:38:41;;;;;;;0.10;0.10;;;10.20;99.90;12.80;88045.00;;;;4974742;28;20601;-69
2022/04/07 07:41:09;;;;;;;0.10;0.10;;;10.20;99.90;12.80;88045.00;;;;4974767;28;20193;-69
2022/04/07 07:43:37;;;;;;;0.00;0.00;;;10.20;99.90;12.80;88045.00;;;;4974842;28;20213;-69
2022/04/07 07:46:07;;;;;;;0.10;0.10;;;10.20;99.90;12.80;88045.00;;;;4975148;28;20221;-68
2022/04/07 07:48:35;;;;;;;0.10;0.10;;;10.10;99.90;12.80;88045.00;;;;4974517;28;20193;-68
2022/04/07 07:51:03;;;;;;;0.10;0.10;;;10.20;99.90;12.80;88045.00;;;;4975722;28;20208;-69
2022/04/07 07:53:31;;;;;;;0.10;0.10;;;10.30;99.90;12.80;88045.00;;;;4974393;28;20217;-69
2022/04/07 07:55:59;;;;;;;0.10;0.10;;;10.30;99.90;12.80;88045.00;;;;4974315;28;20674;-69
2022/04/07 07:58:28;;;;;;;0.10;0.10;;;10.30;99.90;12.80;88045.00;;;;4973217;28;20201;-69
2022/04/07 08:00:56;;;;;;;0.10;0.10;;;10.20;99.90;12.80;88045.00;;;;4975202;28;20450;-69
2022/04/07 08:03:26;;;;;;;0.10;0.10;;;10.30;99.90;12.80;88045.00;;;;4975601;28;20309;-69
2022/04/07 08:05:54;;;;;;;0.10;0.10;;;10.20;99.90;12.80;88045.00;;;;4975854;28;20244;-69
2022/04/07 08:08:22;;;;;;;0.10;0.10;;;10.10;1.00;12.80;88045.00;;;;4975279;28;20197;-69
2022/04/07 08:10:50;;;;;;;0.10;0.10;;;10.00;1.00;12.80;88045.00;;;;4974900;28;20196;-69
2022/04/07 08:13:18;;;;;;;0.10;0.10;;;10.00;1.00;12.80;88045.00;;;;4974240;28;20279;-69
2022/04/07 08:15:46;;;;;;;0.10;0.10;;;10.00;1.00;12.80;88045.00;;;;4974070;28;20201;-69
2022/04/07 08:18:14;;;;;;;0.10;0.10;;;10.20;1.00;12.80;88045.00;;;;4973771;28;20256;-69
2022/04/07 08:20:44;;;;;;;0.10;0.10;;;10.20;99.90;12.80;88045.00;;;;4973727;28;20553;-69
2022/04/07 08:23:12;;;;;;;0.10;0.10;;;10.30;99.90;12.80;88045.00;;;;4973677;28;20596;-70
2022/04/07 08:25:41;;;;;;;0.10;0.10;;;10.50;99.90;12.80;88045.00;;;;4973291;28;20224;-69
2022/04/07 08:28:10;;;;;;;0.10;0.10;;;10.50;99.90;12.80;88045.00;;;;4973672;28;20197;-69
2022/04/07 08:30:38;;;;;;;0.10;0.10;;;10.50;99.90;12.80;88045.00;;;;4974352;28;20212;-70
2022/04/07 08:33:06;;;;;;;0.10;0.10;;;10.50;99.90;12.80;88045.00;;;;4973831;28;20296;-70
2022/04/07 08:35:34;;;;;;;0.10;0.10;;;10.40;99.90;12.80;88045.00;;;;4973078;28;20552;-69
2022/04/07 08:38:04;;;;;;;0.10;0.10;;;10.40;99.90;12.80;88045.00;;;;4972795;28;20189;-70
2022/04/07 08:40:36;;;;;;;0.10;0.10;;;10.40;99.90;12.80;88045.00;;;;4973697;28;20207;-69
2022/04/07 08:43:04;;;;;;;0.10;0.10;;;10.30;99.90;12.80;88045.00;;;;4973165;28;20725;-69
2022/04/07 08:45:33;;;;;;;0.10;0.10;;;10.30;99.90;12.80;88045.00;;;;4972882;28;20323;-69
2022/04/07 08:48:03;;;;;;;0.10;0.10;;;10.30;99.90;12.80;88045.00;;;;4973477;28;20217;-71
2022/04/07 08:50:34;;;;;;;0.10;0.10;;;10.20;99.90;12.80;88045.00;;;;4973101;28;20193;-69
2022/04/07 08:53:03;;;;;;;0.10;0.10;;;10.20;99.90;12.80;88045.00;;;;4973109;28;20311;-69
2022/04/07 08:55:32;;;;;;;0.10;0.10;;;10.30;99.90;12.80;88045.00;;;;4972874;28;20200;-69
2022/04/07 08:58:00;;;;;;;0.10;0.10;;;10.30;99.90;12.80;88045.00;;;;4972974;28;20220;-69
2022/04/07 09:00:28;;;;;;;0.10;0.10;;;10.50;26.90;12.80;88045.00;;;;4973007;28;20244;-69
2022/04/07 09:02:56;;;;;;;0.10;0.10;;;10.70;1.00;12.80;88045.00;;;;4972790;28;20225;-69
2022/04/07 09:05:31;;;;;;;0.10;0.10;;;10.90;1.00;12.80;88045.00;;;;4973119;28;20666;-71
2022/04/07 09:07:59;;;;;;;0.10;0.10;;;10.90;1.00;12.80;88045.00;;;;4973020;28;20205;-69
2022/04/07 09:10:29;;;;;;;0.10;0.10;;;10.90;1.00;12.80;88045.00;;;;4973358;28;20685;-69
2022/04/07 09:13:05;;;;;;;0.10;0.10;;;11.00;1.00;12.80;88045.00;;;;4973145;28;20213;-69
2022/04/07 09:15:34;;;;;;;0.10;0.10;;;10.90;1.00;12.80;88045.00;;;;4973064;28;20627;-69
2022/04/07 09:18:04;;;;;;;0.10;0.10;;;10.90;99.90;12.80;88045.00;;;;4973001;28;20287;-69
2022/04/07 09:20:40;;;;;;;0.10;0.10;;;10.90;99.90;12.80;88045.00;;;;4973303;28;20193;-69
2022/04/07 09:23:13;;;;;;;0.10;0.10;;;10.90;99.90;12.80;88045.00;;;;4975441;28;20216;-69
2022/04/07 09:25:46;;;;;;;0.10;0.10;;;10.90;99.90;12.80;88045.00;;;;4974811;28;20680;-69
2022/04/07 09:28:29;;;;;;;0.10;0.10;;;10.90;99.90;12.80;88045.00;;;;4971771;28;20200;-69
2022/04/07 09:30:59;;;;;;;0.10;0.10;;;10.90;99.90;12.80;88045.00;;;;4972145;28;20659;-69
2022/04/07 09:33:28;;;;;;;0.10;0.10;;;10.90;1.00;12.80;88045.00;;;;4972619;28;20223;-69
2022/04/07 09:36:06;;;;;;;0.10;0.10;;;11.00;1.00;12.80;88045.00;;;;4975002;28;20208;-69
2022/04/07 09:38:36;;;;;;;0.10;0.10;;;11.00;1.00;12.80;88045.00;;;;4976119;28;20220;-69
2022/04/07 09:41:09;;;;;;;0.10;0.10;;;11.00;1.00;12.80;88045.00;;;;4973330;28;20200;-69
2022/04/07 09:43:46;;;;;;;0.10;0.10;;;10.90;1.00;12.80;88045.00;;;;4972561;28;20231;-69
2022/04/07 09:46:18;;;;;;;0.10;0.10;;;10.80;99.90;12.80;88045.00;;;;4972620;28;20225;-72
2022/04/07 09:49:03;;;;;;;0.10;0.10;;;10.70;56.80;12.80;88045.00;;;;4973672;28;20197;-72
2022/04/07 09:51:38;;;;;;;0.10;0.10;;;10.70;68.90;12.80;88045.00;;;;4975224;28;20233;-72
2022/04/07 09:54:10;;;;;;;0.00;0.00;;;10.80;99.90;12.80;88045.00;;;;4976796;28;20217;-73
2022/04/07 09:56:40;;;;;;;0.10;0.10;;;10.80;1.00;12.80;88045.00;;;;4976323;28;20224;-72
2022/04/07 09:59:08;;;;;;;0.03;0.03;;;10.90;48.10;12.80;88045.00;;;;4976476;28;20194;-72
2022/04/07 10:01:38;;;;;;;0.10;0.10;;;10.90;64.90;12.80;88045.00;;;;4976359;28;20206;-72
2022/04/07 10:04:09;;;;;;;0.10;0.10;;;10.90;99.90;12.80;88045.00;;;;4976072;28;20589;-73
2022/04/07 10:06:39;;;;;;;0.10;0.10;;;10.90;99.90;12.80;88045.00;;;;4975652;28;20689;-73
2022/04/07 10:09:11;;;;;;;0.10;0.10;;;10.80;99.90;12.80;88045.00;;;;4976210;28;20185;-72
2022/04/07 10:11:43;;;;;;;0.10;0.10;;;10.90;99.90;12.80;88045.00;;;;4975888;28;20193;-73
2022/04/07 10:14:15;;;;;;;0.10;0.10;;;11.00;99.90;12.80;88045.00;;;;4975956;28;20213;-72
2022/04/07 10:16:45;;;;;;;0.00;0.00;;;11.10;99.90;12.80;88045.00;;;;4975958;28;20620;-72
2022/04/07 10:19:22;;;;;;;0.10;0.10;;;11.10;99.90;12.80;88045.00;;;;4975902;28;20685;-72
2022/04/07 10:22:13;;;;;;;0.10;0.10;;;11.20;99.90;12.80;88045.00;;;;4974483;28;20205;-72
2022/04/07 10:24:48;;;;;;;0.10;0.10;;;11.10;99.90;12.80;88045.00;;;;4975643;28;20228;-72
2022/04/07 10:27:41;;;;;;;0.10;0.10;;;10.90;99.90;12.80;88045.00;;;;4975382;28;20231;-74
2022/04/07 10:30:12;;;;;;;0.10;0.10;;;10.90;99.90;12.80;88045.00;;;;4975678;28;20690;-72
2022/04/07 10:32:42;;;;;;;0.10;0.10;;;10.80;99.90;12.80;88045.00;;;;4975365;28;20757;-72
2022/04/07 10:35:28;;;;;;;0.10;0.10;;;10.80;1.00;12.80;88045.00;;;;4976600;28;20200;-71
2022/04/07 10:37:57;;;;;;;0.10;0.10;;;10.90;99.90;12.80;88045.00;;;;4978898;28;20263;-71
2022/04/07 10:40:44;;;;;;;0.10;0.10;;;10.80;1.00;12.80;88045.00;;;;4980378;28;20251;-72
2022/04/07 10:43:21;;;;;;;0.10;0.10;;;11.00;99.90;12.80;88045.00;;;;4977728;28;20221;-72
2022/04/07 10:45:51;;;;;;;0.10;0.10;;;11.10;99.90;12.80;88045.00;;;;4978107;28;20879;-73
2022/04/07 10:48:29;;;;;;;0.10;0.10;;;11.30;99.90;12.80;88045.00;;;;4976477;28;20193;-72
2022/04/07 10:51:01;;;;;;;0.10;0.10;;;11.20;99.90;12.80;88045.00;;;;4976229;28;20683;-72
2022/04/07 10:53:32;;;;;;;0.05;0.05;;;11.20;99.90;12.80;88045.00;;;;4976751;28;20260;-72
2022/04/07 10:56:07;;;;;;;0.10;0.10;;;11.30;99.90;12.80;88045.00;;;;4976975;28;20221;-71
2022/04/07 10:58:55;;;;;;;0.10;0.10;;;11.40;99.90;12.80;88045.00;;;;4975337;28;20211;-71
2022/04/07 11:01:53;;;;;;;0.10;0.10;;;11.40;99.90;12.80;88045.00;;;;4974590;28;20193;-72
2022/04/07 11:04:51;;;;;;;0.10;0.10;;;11.30;16.00;12.80;88045.00;;;;4975649;28;20243;-71
2022/04/07 11:07:22;;;;;;;0.08;0.08;;;11.30;99.90;12.80;88045.00;;;;4974654;28;20213;-72
2022/04/07 11:10:06;;;;;;;0.10;0.10;;;11.20;99.90;12.80;88045.00;;;;4975566;28;20193;-72
2022/04/07 11:12:37;;;;;;;0.10;0.10;;;11.10;99.90;12.80;88045.00;;;;4977624;28;20228;-71